createdAt,value
2022-10-18T00:00:56.306Z,13.10
2022-10-18T00:03:24.402Z,16.23
2022-10-18T00:05:52.289Z,13.95
2022-10-18T00:08:20.251Z,13.98
2022-10-18T00:10:50.015Z,14.45
2022-10-18T00:13:19.085Z,13.15
2022-10-18T00:15:51.097Z,14.07
2022-10-18T00:18:19.447Z,10.93
2022-10-18T00:20:47.202Z,15.15
2022-10-18T00:23:14.988Z,17.60
2022-10-18T00:25:42.703Z,14.68
2022-10-18T00:28:10.403Z,19.90
2022-10-18T00:30:39.430Z,15.15
2022-10-18T00:33:07.277Z,14.10
2022-10-18T00:35:35.699Z,13.95
2022-10-18T00:38:03.384Z,16.80
2022-10-18T00:40:31.068Z,12.95
2022-10-18T00:42:58.711Z,16.05
2022-10-18T00:45:27.248Z,16.10
2022-10-18T00:48:00.389Z,14.85
2022-10-18T00:50:30.880Z,16.00
2022-10-18T00:53:03.452Z,15.43
2022-10-18T00:55:33.464Z,14.98
2022-10-18T00:58:01.725Z,18.88
2022-10-18T01:00:29.442Z,17.33
2022-10-18T01:02:59.518Z,17.05
2022-10-18T01:05:27.631Z,21.00
2022-10-18T01:08:31.793Z,22.48
2022-10-18T01:11:09.662Z,19.15
2022-10-18T01:13:49.652Z,16.90
2022-10-18T01:16:22.631Z,21.73
2022-10-18T01:19:01.032Z,17.88
2022-10-18T01:21:39.042Z,21.90
2022-10-18T01:24:35.489Z,20.20
2022-10-18T01:27:24.845Z,19.50
2022-10-18T01:30:04.325Z,19.90
2022-10-18T01:32:37.713Z,20.00
2022-10-18T01:35:09.909Z,21.60
2022-10-18T01:37:39.211Z,23.70
2022-10-18T01:40:09.333Z,22.52
2022-10-18T01:42:37.091Z,23.13
2022-10-18T01:45:07.867Z,25.73
2022-10-18T01:47:37.294Z,20.95
2022-10-18T01:50:06.954Z,19.10
2022-10-18T01:52:34.777Z,22.00
2022-10-18T01:55:04.194Z,19.88
2022-10-18T01:57:38.233Z,22.52
2022-10-18T02:00:12.351Z,23.80
2022-10-18T02:02:49.169Z,21.98
2022-10-18T02:05:26.065Z,22.25
2022-10-18T02:08:12.409Z,21.17
2022-10-18T02:10:49.822Z,28.88
2022-10-18T02:13:21.038Z,24.02
2022-10-18T02:15:57.754Z,20.92
2022-10-18T02:18:35.058Z,22.35
2022-10-18T02:21:04.477Z,24.20
2022-10-18T02:23:33.099Z,25.67
2022-10-18T02:26:01.469Z,22.48
2022-10-18T02:28:29.413Z,22.95
2022-10-18T02:31:05.731Z,23.48
2022-10-18T02:33:44.114Z,20.80
2022-10-18T02:36:16.231Z,25.98
2022-10-18T02:38:53.779Z,22.67
2022-10-18T02:41:24.462Z,24.30
2022-10-18T02:43:52.205Z,24.30
2022-10-18T02:46:20.006Z,24.35
2022-10-18T02:48:49.363Z,26.60
2022-10-18T02:51:17.497Z,24.88
2022-10-18T02:53:45.184Z,30.92
2022-10-18T02:56:12.998Z,24.17
2022-10-18T02:58:40.643Z,25.83
2022-10-18T03:01:08.443Z,25.70
2022-10-18T03:03:36.186Z,25.90
2022-10-18T03:06:05.529Z,25.67
2022-10-18T03:08:33.329Z,27.63
2022-10-18T03:11:00.908Z,26.98
2022-10-18T03:15:56.173Z,32.78
2022-10-18T03:18:23.934Z,33.60
2022-10-18T03:20:51.513Z,28.92
2022-10-18T03:23:20.813Z,27.80
2022-10-18T03:25:48.659Z,37.60
2022-10-18T03:28:16.398Z,26.27
2022-10-18T03:30:44.159Z,32.67
2022-10-18T03:33:11.850Z,29.77
2022-10-18T03:35:39.493Z,31.35
2022-10-18T03:38:07.089Z,28.95
2022-10-18T03:40:36.215Z,37.47
2022-10-18T03:43:04.085Z,29.27
2022-10-18T03:45:31.811Z,36.38
2022-10-18T03:48:00.679Z,24.98
2022-10-18T03:50:28.430Z,30.50
2022-10-18T03:52:56.402Z,32.10
2022-10-18T03:55:24.138Z,28.02
2022-10-18T03:57:53.100Z,30.88
2022-10-18T04:00:20.771Z,30.58
2022-10-18T04:02:51.969Z,30.00
2022-10-18T04:05:23.884Z,27.85
2022-10-18T04:07:51.643Z,28.50
2022-10-18T04:10:19.843Z,31.58
2022-10-18T04:12:47.456Z,29.75
2022-10-18T04:15:16.431Z,34.55
2022-10-18T04:17:44.123Z,28.75
2022-10-18T04:20:12.615Z,33.00
2022-10-18T04:22:40.415Z,29.95
2022-10-18T04:25:08.674Z,30.45
2022-10-18T04:27:36.737Z,34.38
2022-10-18T04:30:05.111Z,29.08
2022-10-18T04:32:35.345Z,34.65
2022-10-18T04:35:03.353Z,37.53
2022-10-18T04:37:31.434Z,26.17
2022-10-18T04:39:59.355Z,27.52
2022-10-18T04:42:27.202Z,31.50
2022-10-18T04:44:54.857Z,32.00
2022-10-18T04:47:22.582Z,28.40
2022-10-18T04:49:51.722Z,38.65
2022-10-18T04:52:19.491Z,29.05
2022-10-18T04:54:47.230Z,39.13
2022-10-18T04:57:14.922Z,35.13
2022-10-18T04:59:42.585Z,38.05
2022-10-18T05:02:10.239Z,30.30
2022-10-18T05:04:37.948Z,36.15
2022-10-18T05:07:06.949Z,29.95
2022-10-18T05:09:34.794Z,36.17
2022-10-18T05:12:02.693Z,34.58
2022-10-18T05:14:30.600Z,36.47
2022-10-18T05:16:58.524Z,40.63
2022-10-18T05:19:26.271Z,35.83
2022-10-18T05:21:53.953Z,28.52
2022-10-18T05:24:25.511Z,31.95
2022-10-18T05:26:55.434Z,33.60
2022-10-18T05:29:23.187Z,33.47
2022-10-18T05:31:51.078Z,30.13
2022-10-18T05:34:20.598Z,39.25
2022-10-18T05:36:49.370Z,33.60
2022-10-18T05:39:17.093Z,31.73
2022-10-18T05:41:46.019Z,29.20
2022-10-18T05:44:13.772Z,34.08
2022-10-18T05:46:41.581Z,39.00
2022-10-18T05:49:11.071Z,37.03
2022-10-18T05:51:38.688Z,26.25
2022-10-18T05:54:06.374Z,38.45
2022-10-18T05:56:34.024Z,33.10
2022-10-18T05:59:05.056Z,34.40
2022-10-18T06:01:32.632Z,31.80
2022-10-18T06:04:00.245Z,33.55
2022-10-18T06:06:27.880Z,32.38
2022-10-18T06:08:55.520Z,35.00
2022-10-18T06:11:24.013Z,27.08
2022-10-18T06:13:54.014Z,25.45
2022-10-18T06:16:32.423Z,28.38
2022-10-18T06:19:00.648Z,31.33
2022-10-18T06:21:28.489Z,30.73
2022-10-18T06:23:57.843Z,28.25
2022-10-18T06:26:26.479Z,27.63
2022-10-18T06:28:54.369Z,26.70
2022-10-18T06:31:22.210Z,30.10
2022-10-18T06:33:51.527Z,25.80
2022-10-18T06:36:22.022Z,32.13
2022-10-18T06:38:50.298Z,28.75
2022-10-18T06:41:19.209Z,24.92
2022-10-18T06:43:49.338Z,26.35
2022-10-18T06:46:17.409Z,23.77
2022-10-18T06:48:45.240Z,25.38
2022-10-18T06:51:15.117Z,24.58
2022-10-18T06:53:53.481Z,28.40
2022-10-18T06:56:31.172Z,30.15
2022-10-18T07:01:31.982Z,26.23
2022-10-18T07:03:59.749Z,25.10
2022-10-18T07:06:29.048Z,28.33
2022-10-18T07:08:57.278Z,25.15
2022-10-18T07:11:27.960Z,24.88
2022-10-18T07:14:00.757Z,25.35
2022-10-18T07:16:28.489Z,26.77
2022-10-18T07:18:56.289Z,24.38
2022-10-18T07:21:26.053Z,29.63
2022-10-18T07:23:55.526Z,22.48
2022-10-18T07:26:26.167Z,25.35
2022-10-18T07:28:57.879Z,22.63
2022-10-18T07:31:26.741Z,22.20
2022-10-18T07:33:55.148Z,21.67
2022-10-18T07:36:23.071Z,20.92
2022-10-18T07:38:52.199Z,24.42
2022-10-18T07:41:22.079Z,27.88
2022-10-18T07:43:51.809Z,23.23
2022-10-18T07:46:21.263Z,23.48
2022-10-18T07:48:49.727Z,25.63
2022-10-18T07:51:18.743Z,25.17
2022-10-18T07:53:47.729Z,26.42
2022-10-18T07:56:18.205Z,24.25
2022-10-18T07:58:49.156Z,25.67
2022-10-18T08:01:20.355Z,20.88
2022-10-18T08:03:48.449Z,30.77
2022-10-18T08:06:19.209Z,22.15
2022-10-18T08:08:47.544Z,22.58
2022-10-18T08:11:17.176Z,30.80
2022-10-18T08:13:45.761Z,20.50
2022-10-18T08:16:18.164Z,24.20
2022-10-18T08:18:46.059Z,26.98
2022-10-18T08:21:16.248Z,21.90
2022-10-18T08:23:44.183Z,26.00
2022-10-18T08:26:14.612Z,26.63
2022-10-18T08:28:49.128Z,21.77
2022-10-18T08:31:27.713Z,24.25
2022-10-18T08:33:56.840Z,28.08
2022-10-18T08:36:25.078Z,19.73
2022-10-18T08:38:52.973Z,20.88
2022-10-18T08:41:39.346Z,24.17
2022-10-18T08:44:14.183Z,21.13
2022-10-18T08:46:49.302Z,15.88
2022-10-18T08:49:26.500Z,20.23
2022-10-18T08:51:55.085Z,19.50
2022-10-18T08:54:30.773Z,21.13
2022-10-18T08:57:01.135Z,19.85
2022-10-18T08:59:35.283Z,18.02
2022-10-18T09:02:16.947Z,16.38
2022-10-18T09:04:54.150Z,19.15
2022-10-18T09:07:47.671Z,19.80
2022-10-18T09:10:23.488Z,16.25
2022-10-18T09:13:13.954Z,20.75
2022-10-18T09:15:46.633Z,21.30
2022-10-18T09:18:29.512Z,19.73
2022-10-18T09:20:58.934Z,17.00
2022-10-18T09:23:47.838Z,16.65
2022-10-18T09:26:19.332Z,24.95
2022-10-18T09:29:04.708Z,21.08
2022-10-18T09:31:41.406Z,22.15
2022-10-18T09:34:15.084Z,18.67
2022-10-18T09:36:42.902Z,20.17
2022-10-18T09:39:14.196Z,17.33
2022-10-18T09:41:48.186Z,16.42
2022-10-18T09:44:22.192Z,14.07
2022-10-18T09:46:53.324Z,14.98
2022-10-18T09:49:26.548Z,12.98
2022-10-18T09:51:55.310Z,14.30
2022-10-18T09:54:28.981Z,16.23
2022-10-18T09:57:03.508Z,15.98
2022-10-18T09:59:36.282Z,18.35
2022-10-18T10:02:04.966Z,15.30
2022-10-18T10:04:34.300Z,17.60
2022-10-18T10:07:03.414Z,17.35
2022-10-18T10:09:37.422Z,15.00
2022-10-18T10:12:05.626Z,13.35
2022-10-18T10:14:44.475Z,18.58
2022-10-18T10:17:25.097Z,15.90
2022-10-18T10:20:02.069Z,19.23
2022-10-18T10:22:35.394Z,16.83
2022-10-18T10:25:04.025Z,16.58
2022-10-18T10:27:35.460Z,17.15
2022-10-18T10:30:07.224Z,16.10
2022-10-18T10:32:47.957Z,14.25
2022-10-18T10:38:28.288Z,15.15
2022-10-18T10:40:56.299Z,14.55
2022-10-18T10:43:42.555Z,18.30
2022-10-18T10:46:15.576Z,15.18
2022-10-18T10:48:49.500Z,19.02
2022-10-18T10:51:29.863Z,18.60
2022-10-18T10:54:03.225Z,14.57
2022-10-18T10:56:33.672Z,13.18
2022-10-18T10:59:09.587Z,15.93
2022-10-18T11:01:37.434Z,15.93
2022-10-18T11:04:28.367Z,11.20
2022-10-18T11:07:07.813Z,10.63
2022-10-18T11:09:55.704Z,11.43
2022-10-18T11:12:28.983Z,14.07
2022-10-18T11:15:18.748Z,10.75
2022-10-18T11:17:58.113Z,16.40
2022-10-18T11:20:29.809Z,10.05
2022-10-18T11:23:04.950Z,10.05
2022-10-18T11:25:47.511Z,11.80
2022-10-18T11:28:35.177Z,9.70
2022-10-18T11:31:18.754Z,10.52
2022-10-18T11:34:15.079Z,9.73
2022-10-18T11:37:15.845Z,12.13
2022-10-18T11:39:58.986Z,12.68
2022-10-18T11:42:39.080Z,11.10
2022-10-18T11:45:23.968Z,12.43
2022-10-18T11:47:57.315Z,14.15
2022-10-18T11:50:34.896Z,12.93
2022-10-18T11:53:19.109Z,10.35
2022-10-18T11:55:58.015Z,11.73
2022-10-18T11:58:43.513Z,11.90
2022-10-18T12:01:19.133Z,12.27
2022-10-18T12:03:55.648Z,10.43
2022-10-18T12:06:26.037Z,9.25
2022-10-18T12:08:56.944Z,10.10
2022-10-18T12:11:52.298Z,11.90
2022-10-18T12:14:50.092Z,12.80
2022-10-18T12:17:47.686Z,9.60
2022-10-18T12:20:43.965Z,13.43
2022-10-18T12:23:39.880Z,8.38
2022-10-18T12:26:29.645Z,7.22
2022-10-18T12:29:15.185Z,12.73
2022-10-18T12:31:49.507Z,8.32
2022-10-18T12:34:42.855Z,10.05
2022-10-18T12:37:41.139Z,7.60
2022-10-18T12:40:18.886Z,8.73
2022-10-18T12:42:51.857Z,7.78
2022-10-18T12:45:32.347Z,7.45
2022-10-18T12:48:01.842Z,8.23
2022-10-18T12:50:36.205Z,6.00
2022-10-18T12:53:08.201Z,7.82
2022-10-18T12:55:38.153Z,8.40
2022-10-18T12:58:27.839Z,8.70
2022-10-18T13:01:07.146Z,5.28
2022-10-18T13:04:02.581Z,5.95
2022-10-18T13:07:03.877Z,9.70
2022-10-18T13:09:35.106Z,17.67
2022-10-18T13:12:56.449Z,4.07
2022-10-18T13:15:48.234Z,5.25
2022-10-18T13:18:50.620Z,7.68
2022-10-18T13:21:46.963Z,8.30
2022-10-18T13:24:37.889Z,7.60
2022-10-18T13:27:42.180Z,6.50
2022-10-18T13:30:49.884Z,5.70
2022-10-18T13:33:40.891Z,6.68
2022-10-18T13:36:35.690Z,8.63
2022-10-18T13:39:23.878Z,7.45
2022-10-18T13:42:33.167Z,5.68
2022-10-18T13:45:44.564Z,5.18
2022-10-18T13:49:01.062Z,5.88
2022-10-18T13:51:58.959Z,3.95
2022-10-18T13:55:04.668Z,6.88
2022-10-18T13:58:00.515Z,7.32
2022-10-18T14:00:55.915Z,5.88
2022-10-18T14:04:15.289Z,5.10
2022-10-18T14:07:07.497Z,10.23
2022-10-18T14:10:01.817Z,6.90
2022-10-18T14:12:57.235Z,5.80
2022-10-18T14:15:50.182Z,6.65
2022-10-18T14:18:23.408Z,10.85
2022-10-18T14:21:12.691Z,8.05
2022-10-18T14:24:00.030Z,7.32
2022-10-18T14:26:48.111Z,6.43
2022-10-18T14:29:36.301Z,5.32
2022-10-18T14:32:27.604Z,8.30
2022-10-18T14:35:32.206Z,6.70
2022-10-18T14:38:46.075Z,4.05
2022-10-18T14:41:37.668Z,8.05
2022-10-18T14:44:28.400Z,5.35
2022-10-18T14:47:21.041Z,12.43
2022-10-18T14:50:31.248Z,10.05
2022-10-18T14:53:22.032Z,7.65
2022-10-18T14:56:22.938Z,7.72
2022-10-18T14:59:17.132Z,6.35
2022-10-18T15:02:13.971Z,5.05
2022-10-18T15:05:10.630Z,4.68
2022-10-18T15:08:00.609Z,6.82
2022-10-18T15:10:49.373Z,6.93
2022-10-18T15:13:46.462Z,11.35
2022-10-18T15:16:34.970Z,11.27
2022-10-18T15:19:30.118Z,6.78
2022-10-18T15:22:31.735Z,9.73
2022-10-18T15:25:29.277Z,8.98
2022-10-18T15:28:30.662Z,4.97
2022-10-18T15:31:24.969Z,9.00
2022-10-18T15:34:19.472Z,8.40
2022-10-18T15:37:18.381Z,11.23
2022-10-18T15:40:34.039Z,8.18
2022-10-18T15:43:36.905Z,9.27
2022-10-18T15:46:33.599Z,8.05
2022-10-18T15:49:51.305Z,10.00
2022-10-18T15:52:41.860Z,7.80
2022-10-18T15:55:50.257Z,8.55
2022-10-18T15:58:44.066Z,5.57
2022-10-18T16:01:44.868Z,11.40
2022-10-18T16:04:21.745Z,5.13
2022-10-18T16:06:49.669Z,10.63
2022-10-18T16:09:19.858Z,8.82
2022-10-18T16:11:58.428Z,7.38
2022-10-18T16:14:27.626Z,5.85
2022-10-18T16:17:03.205Z,17.80
2022-10-18T16:19:32.014Z,11.23
2022-10-18T16:22:06.006Z,8.30
2022-10-18T16:24:34.600Z,19.77
2022-10-18T16:27:05.044Z,11.80
2022-10-18T16:29:34.520Z,8.73
2022-10-18T16:32:03.809Z,8.43
2022-10-18T16:34:32.213Z,10.73
2022-10-18T16:37:00.124Z,6.65
2022-10-18T16:39:28.428Z,13.68
2022-10-18T16:41:56.327Z,7.38
2022-10-18T16:44:24.123Z,9.93
2022-10-18T16:46:53.997Z,12.93
2022-10-18T16:49:26.818Z,10.75
2022-10-18T16:51:55.452Z,7.53
2022-10-18T16:54:23.830Z,5.35
2022-10-18T16:56:51.907Z,14.18
2022-10-18T16:59:25.578Z,14.13
2022-10-18T17:01:53.877Z,9.70
2022-10-18T17:04:21.933Z,9.32
2022-10-18T17:06:51.914Z,9.02
2022-10-18T17:09:19.733Z,10.68
2022-10-18T17:11:47.857Z,9.18
2022-10-18T17:14:15.878Z,6.50
2022-10-18T17:16:45.629Z,8.32
2022-10-18T17:19:16.529Z,5.60
2022-10-18T17:21:44.193Z,9.57
2022-10-18T17:24:13.328Z,7.28
2022-10-18T17:26:41.025Z,8.63
2022-10-18T17:29:09.013Z,6.65
2022-10-18T17:31:36.851Z,6.95
2022-10-18T17:34:08.973Z,8.20
2022-10-18T17:36:36.897Z,8.20
2022-10-18T17:39:05.203Z,9.07
2022-10-18T17:41:34.166Z,7.22
2022-10-18T17:44:03.835Z,6.53
2022-10-18T17:46:31.782Z,4.35
2022-10-18T17:49:01.248Z,8.77
2022-10-18T17:51:28.895Z,12.40
2022-10-18T17:53:56.533Z,6.78
2022-10-18T17:56:24.706Z,6.70
2022-10-18T17:58:53.780Z,7.40
2022-10-18T18:01:23.908Z,5.53
2022-10-18T18:03:52.197Z,7.90
2022-10-18T18:06:21.632Z,9.63
2022-10-18T18:08:50.513Z,10.35
2022-10-18T18:11:18.832Z,6.63
2022-10-18T18:13:46.809Z,7.30
2022-10-18T18:16:18.189Z,6.50
2022-10-18T18:18:50.569Z,6.90
2022-10-18T18:21:18.935Z,9.30
2022-10-18T18:23:47.558Z,5.00
2022-10-18T18:26:18.904Z,6.35
2022-10-18T18:28:46.753Z,10.98
2022-10-18T18:31:17.698Z,6.45
2022-10-18T18:33:46.560Z,6.70
2022-10-18T18:36:14.327Z,6.97
2022-10-18T18:38:43.503Z,5.95
2022-10-18T18:41:13.352Z,4.60
2022-10-18T18:43:44.475Z,8.02
2022-10-18T18:46:13.719Z,6.65
2022-10-18T18:48:43.033Z,4.15
2022-10-18T18:51:14.308Z,4.47
2022-10-18T18:53:43.214Z,4.45
2022-10-18T18:56:14.305Z,5.28
2022-10-18T18:58:44.021Z,5.15
2022-10-18T19:01:14.675Z,6.00
2022-10-18T19:03:44.848Z,9.68
2022-10-18T19:06:14.377Z,5.20
2022-10-18T19:08:44.801Z,3.28
2022-10-18T19:11:16.636Z,5.55
2022-10-18T19:13:45.396Z,4.22
2022-10-18T19:16:22.584Z,5.13
2022-10-18T19:18:57.233Z,5.22
2022-10-18T19:21:26.249Z,4.53
2022-10-18T19:23:56.048Z,4.28
2022-10-18T19:26:36.662Z,7.57
2022-10-18T19:29:08.518Z,7.38
2022-10-18T19:31:37.228Z,5.85
2022-10-18T19:34:08.725Z,8.57
2022-10-18T19:36:37.104Z,16.80
2022-10-18T19:39:06.150Z,6.95
2022-10-18T19:41:34.135Z,5.82
2022-10-18T19:44:01.985Z,5.75
2022-10-18T19:46:29.825Z,5.55
2022-10-18T19:48:58.586Z,7.28
2022-10-18T19:51:28.464Z,4.15
2022-10-18T19:53:57.631Z,5.45
2022-10-18T19:56:27.378Z,11.32
2022-10-18T19:58:55.811Z,5.80
2022-10-18T20:01:23.595Z,4.65
2022-10-18T20:03:51.408Z,3.15
2022-10-18T20:06:19.181Z,5.53
2022-10-18T20:08:49.024Z,5.55
2022-10-18T20:11:19.040Z,4.60
2022-10-18T20:13:47.273Z,5.55
2022-10-18T20:16:16.782Z,5.68
2022-10-18T20:18:45.040Z,6.18
2022-10-18T20:21:14.957Z,5.45
2022-10-18T20:23:43.977Z,7.25
2022-10-18T20:26:18.287Z,7.75
2022-10-18T20:28:49.402Z,4.35
2022-10-18T20:31:18.866Z,6.07
2022-10-18T20:33:47.002Z,7.13
2022-10-18T20:36:16.762Z,5.95
2022-10-18T20:38:46.111Z,8.75
2022-10-18T20:41:16.630Z,4.95
2022-10-18T20:43:45.121Z,7.88
2022-10-18T20:46:13.095Z,9.38
2022-10-18T20:48:41.009Z,4.00
2022-10-18T20:51:13.133Z,6.38
2022-10-18T20:53:41.614Z,3.83
2022-10-18T20:56:11.099Z,7.38
2022-10-18T20:58:42.051Z,7.10
2022-10-18T21:01:11.071Z,7.55
2022-10-18T21:03:43.312Z,3.03
2022-10-18T21:06:12.615Z,10.90
2022-10-18T21:08:41.172Z,6.97
2022-10-18T21:11:09.260Z,7.20
2022-10-18T21:13:37.363Z,5.35
2022-10-18T21:16:09.833Z,9.80
2022-10-18T21:18:40.451Z,3.15
2022-10-18T21:21:10.493Z,7.10
2022-10-18T21:23:38.866Z,4.95
2022-10-18T21:26:07.512Z,7.43
2022-10-18T21:28:35.579Z,9.57
2022-10-18T21:31:13.248Z,6.68
2022-10-18T21:33:41.141Z,8.05
2022-10-18T21:36:10.053Z,5.13
2022-10-18T21:38:38.089Z,7.55
2022-10-18T21:41:10.300Z,4.15
2022-10-18T21:43:40.537Z,3.47
2022-10-18T21:46:08.802Z,4.75
2022-10-18T21:48:38.749Z,6.93
2022-10-18T21:51:08.357Z,6.55
2022-10-18T21:53:36.601Z,8.15
2022-10-18T21:56:09.561Z,4.72
2022-10-18T21:58:38.371Z,5.20
2022-10-18T22:01:08.414Z,5.10
2022-10-18T22:03:37.754Z,7.47
2022-10-18T22:06:09.286Z,5.40
2022-10-18T22:08:37.173Z,5.47
2022-10-18T22:11:04.876Z,8.50
2022-10-18T22:13:32.607Z,6.30
2022-10-18T22:16:02.037Z,6.13
2022-10-18T22:18:30.059Z,3.72
2022-10-18T22:21:01.206Z,7.70
2022-10-18T22:23:32.844Z,6.28
2022-10-18T22:26:04.156Z,5.22
2022-10-18T22:28:31.937Z,7.18
2022-10-18T22:30:59.658Z,4.20
2022-10-18T22:33:27.665Z,4.82
2022-10-18T22:35:55.296Z,4.07
2022-10-18T22:38:24.372Z,9.98
2022-10-18T22:40:51.933Z,5.15
2022-10-18T22:43:19.892Z,8.02
2022-10-18T22:45:47.469Z,4.00
2022-10-18T22:48:15.217Z,3.20
2022-10-18T22:50:42.904Z,5.57
2022-10-18T22:53:10.567Z,8.68
2022-10-18T22:55:39.464Z,3.75
2022-10-18T22:58:07.200Z,5.35
2022-10-18T23:00:35.011Z,5.32
2022-10-18T23:03:02.836Z,8.80
2022-10-18T23:05:30.736Z,5.97
2022-10-18T23:07:58.465Z,6.60
2022-10-18T23:10:26.390Z,3.92
2022-10-18T23:12:55.375Z,4.07
2022-10-18T23:15:22.922Z,5.20
2022-10-18T23:17:54.489Z,3.83
2022-10-18T23:20:22.125Z,7.57
2022-10-18T23:22:49.866Z,4.15
2022-10-18T23:25:17.513Z,4.93
2022-10-18T23:27:45.110Z,6.70
2022-10-18T23:30:14.494Z,5.30
2022-10-18T23:32:42.046Z,4.15
2022-10-18T23:35:10.385Z,2.88
2022-10-18T23:37:38.045Z,4.07
2022-10-18T23:40:06.581Z,4.47
2022-10-18T23:42:34.133Z,5.32
2022-10-18T23:45:01.733Z,4.30
2022-10-18T23:47:30.823Z,6.95
2022-10-18T23:49:58.862Z,5.32
2022-10-18T23:52:26.530Z,8.25
2022-10-18T23:54:54.053Z,5.63
2022-10-18T23:57:21.611Z,4.43
2022-10-18T23:59:49.158Z,6.78
